createdAt,value
2022-09-02T04:16:44.352Z,46.71
2022-09-02T04:19:11.346Z,46.72
2022-09-02T04:21:41.267Z,46.84
2022-09-02T04:24:10.134Z,47.12
2022-09-02T04:26:45.424Z,46.60
2022-09-02T04:29:20.732Z,47.18
2022-09-02T04:31:50.424Z,47.01
2022-09-02T04:34:20.427Z,47.57
2022-09-02T04:36:49.622Z,46.90
2022-09-02T04:39:18.017Z,46.81
2022-09-02T04:41:59.526Z,47.06
2022-09-02T04:44:26.879Z,46.89
2022-09-02T04:46:56.387Z,47.13
2022-09-02T04:49:23.756Z,46.83
2022-09-02T04:51:54.439Z,47.63
2022-09-02T04:54:22.767Z,47.08
2022-09-02T05:00:20.104Z,47.16
2022-09-02T05:03:13.711Z,46.99
2022-09-02T05:06:01.191Z,47.15
2022-09-02T05:08:37.869Z,47.09
2022-09-02T05:11:10.145Z,47.30
2022-09-02T05:13:58.965Z,47.22
2022-09-02T05:20:02.907Z,46.68
2022-09-02T05:22:44.834Z,46.75
2022-09-02T05:25:24.215Z,46.80
2022-09-02T05:31:32.568Z,46.62
2022-09-02T05:34:00.260Z,46.80
2022-09-02T05:36:27.367Z,46.72
2022-09-02T05:38:55.728Z,46.80
2022-09-02T05:41:24.220Z,46.80
2022-09-02T05:43:57.006Z,46.96
2022-09-02T05:46:29.980Z,46.79
2022-09-02T05:49:06.907Z,46.67
2022-09-02T05:51:52.998Z,46.60
2022-09-02T05:54:28.601Z,46.40
2022-09-02T05:56:59.226Z,46.42
2022-09-02T05:59:27.580Z,46.48
2022-09-02T06:01:59.097Z,46.24
2022-09-02T06:04:29.078Z,46.16
2022-09-02T06:06:56.745Z,46.55
2022-09-02T06:09:27.149Z,46.03
2022-09-02T06:12:00.631Z,46.05
2022-09-02T06:14:31.408Z,46.01
2022-09-02T06:17:00.351Z,46.04
2022-09-02T06:19:35.376Z,45.82
2022-09-02T06:22:58.594Z,45.82
2022-09-02T06:25:28.820Z,45.62
2022-09-02T06:27:55.990Z,45.73
2022-09-02T06:30:24.409Z,45.43
2022-09-02T06:32:51.084Z,45.18
2022-09-02T06:35:19.832Z,45.25
2022-09-02T06:37:46.684Z,45.05
2022-09-02T06:40:14.723Z,45.14
2022-09-02T06:42:42.214Z,45.04
2022-09-02T06:45:55.563Z,44.93
2022-09-02T06:48:22.599Z,45.01
2022-09-02T06:50:52.283Z,44.72
2022-09-02T06:53:19.759Z,44.77
2022-09-02T06:55:46.917Z,44.39
2022-09-02T06:58:17.087Z,44.55
2022-09-02T07:00:44.618Z,44.46
2022-09-02T07:03:31.880Z,43.97
2022-09-02T07:06:06.469Z,43.75
2022-09-02T07:08:39.185Z,43.70
2022-09-02T07:11:07.993Z,44.13
2022-09-02T07:13:39.334Z,44.21
2022-09-02T07:16:07.989Z,44.04
2022-09-02T07:18:37.836Z,44.41
2022-09-02T07:21:12.159Z,43.77
2022-09-02T07:23:41.439Z,43.83
2022-09-02T07:26:20.159Z,43.83
2022-09-02T07:28:47.603Z,43.71
2022-09-02T07:31:19.002Z,44.03
2022-09-02T07:33:58.719Z,44.32
2022-09-02T07:36:34.795Z,43.96
2022-09-02T07:39:11.066Z,44.36
2022-09-02T07:41:40.873Z,44.17
2022-09-02T07:44:08.241Z,44.55
2022-09-02T07:46:36.980Z,44.68
2022-09-02T07:49:23.941Z,44.77
2022-09-02T07:51:52.060Z,44.93
2022-09-02T07:54:22.012Z,44.72
2022-09-02T07:56:52.262Z,44.82
2022-09-02T07:59:21.776Z,45.16
2022-09-02T08:01:52.160Z,44.30
2022-09-02T08:04:23.254Z,44.29
2022-09-02T08:06:51.054Z,44.80
2022-09-02T08:09:17.702Z,44.53
2022-09-02T08:11:47.621Z,44.72
2022-09-02T08:14:20.356Z,44.58
2022-09-02T08:16:48.827Z,44.76
2022-09-02T08:19:15.966Z,45.09
2022-09-02T08:21:42.490Z,45.06
2022-09-02T08:24:10.052Z,44.89
2022-09-02T08:26:37.240Z,44.16
2022-09-02T08:29:08.681Z,44.49
2022-09-02T08:31:37.627Z,44.78
2022-09-02T08:34:04.206Z,44.91
2022-09-02T08:36:30.753Z,44.76
2022-09-02T08:38:58.293Z,43.78
2022-09-02T08:41:47.304Z,43.56
2022-09-02T08:44:22.662Z,43.21
2022-09-02T08:46:53.813Z,43.05
2022-09-02T08:49:49.647Z,43.32
2022-09-02T08:52:28.513Z,43.08
2022-09-02T08:54:56.228Z,41.68
2022-09-02T08:57:27.571Z,41.22
2022-09-02T08:59:58.404Z,41.12
2022-09-02T09:03:04.543Z,41.23
2022-09-02T09:06:04.509Z,40.76
2022-09-02T09:08:45.672Z,41.21
2022-09-02T09:11:23.736Z,40.23
2022-09-02T09:13:59.914Z,39.74
2022-09-02T09:16:33.808Z,40.09
2022-09-02T09:19:20.068Z,39.82
2022-09-02T09:21:46.676Z,38.71
2022-09-02T09:24:45.319Z,39.02
2022-09-02T09:27:21.059Z,38.92
2022-09-02T09:29:49.439Z,38.61
2022-09-02T09:32:23.202Z,38.75
2022-09-02T09:34:52.810Z,38.56
2022-09-02T09:37:36.112Z,38.42
2022-09-02T09:40:31.003Z,37.61
2022-09-02T09:43:05.694Z,36.72
2022-09-02T09:45:47.199Z,36.19
2022-09-02T09:48:16.916Z,36.36
2022-09-02T09:50:44.553Z,35.91
2022-09-02T09:53:21.349Z,35.63
2022-09-02T09:56:25.226Z,34.96
2022-09-02T09:58:52.049Z,35.32
2022-09-02T10:01:24.527Z,34.90
2022-09-02T10:04:42.888Z,34.48
2022-09-02T10:07:13.380Z,33.24
2022-09-02T10:09:40.744Z,32.78
2022-09-02T10:12:11.133Z,31.80
2022-09-02T10:14:45.767Z,32.64
2022-09-02T10:17:24.711Z,31.07
2022-09-02T10:20:13.070Z,31.53
2022-09-02T10:23:00.528Z,29.52
2022-09-02T10:25:46.082Z,27.96
2022-09-02T10:28:34.420Z,27.68
2022-09-02T10:31:13.060Z,27.10
2022-09-02T10:33:48.521Z,27.10
2022-09-02T10:36:28.765Z,27.45
2022-09-02T10:39:05.759Z,26.83
2022-09-02T10:41:32.242Z,26.97
2022-09-02T10:44:07.863Z,27.31
2022-09-02T10:46:48.490Z,26.74
2022-09-02T10:49:28.451Z,26.29
2022-09-02T10:52:14.735Z,26.71
2022-09-02T10:55:11.251Z,27.21
2022-09-02T10:57:48.288Z,26.87
2022-09-02T11:00:20.027Z,26.04
2022-09-02T11:03:12.813Z,25.29
2022-09-02T11:05:53.781Z,24.64
2022-09-02T11:08:46.461Z,23.26
2022-09-02T11:11:30.577Z,22.03
2022-09-02T11:17:16.306Z,20.45
2022-09-02T11:19:55.681Z,20.59
2022-09-02T11:22:35.285Z,19.42
2022-09-02T11:25:25.752Z,20.33
2022-09-02T11:28:12.084Z,20.13
2022-09-02T11:31:10.505Z,19.78
2022-09-02T11:36:33.448Z,19.39
2022-09-02T11:39:05.090Z,18.86
2022-09-02T11:41:49.075Z,18.40
2022-09-02T11:44:31.852Z,19.41
2022-09-02T11:47:17.176Z,19.05
2022-09-02T11:49:56.914Z,19.32
2022-09-02T11:52:29.490Z,18.36
2022-09-02T11:55:20.404Z,18.49
2022-09-02T11:57:54.907Z,18.75
2022-09-02T12:00:58.455Z,18.70
2022-09-02T12:03:41.186Z,18.08
2022-09-02T12:06:19.148Z,17.91
2022-09-02T12:08:47.081Z,17.88
2022-09-02T12:11:38.107Z,17.19
2022-09-02T12:14:08.073Z,16.62
2022-09-02T12:16:37.354Z,16.70
2022-09-02T12:19:07.386Z,17.25
2022-09-02T12:21:35.591Z,17.82
2022-09-02T12:24:02.034Z,19.05
2022-09-02T12:26:37.476Z,17.10
2022-09-02T12:29:22.985Z,17.20
2022-09-02T12:31:53.958Z,17.64
2022-09-02T12:34:20.467Z,18.52
2022-09-02T12:37:00.627Z,18.82
2022-09-02T12:39:30.696Z,19.74
2022-09-02T12:42:08.773Z,19.17
2022-09-02T12:45:01.343Z,19.61
2022-09-02T12:47:46.738Z,17.72
2022-09-02T12:50:43.856Z,17.91
2022-09-02T12:53:32.422Z,17.45
2022-09-02T12:56:08.769Z,16.72
2022-09-02T12:58:42.801Z,17.52
2022-09-02T13:01:43.004Z,16.73
2022-09-02T13:04:26.282Z,15.90
2022-09-02T13:07:14.622Z,16.41
2022-09-02T13:10:23.248Z,15.89
2022-09-02T13:13:27.095Z,14.72
2022-09-02T13:16:23.882Z,15.33
2022-09-02T13:19:21.174Z,14.92
2022-09-02T13:22:22.300Z,15.14
2022-09-02T13:25:13.276Z,15.73
2022-09-02T13:28:04.618Z,15.01
2022-09-02T13:30:52.808Z,14.86
2022-09-02T13:33:19.550Z,14.93
2022-09-02T13:35:46.283Z,14.89
2022-09-02T13:38:16.347Z,14.89
2022-09-02T13:40:46.462Z,16.53
2022-09-02T13:43:12.957Z,16.49
2022-09-02T13:45:40.088Z,18.40
2022-09-02T13:48:17.642Z,17.71
2022-09-02T13:50:47.635Z,17.53
2022-09-02T13:53:58.810Z,16.20
2022-09-02T13:56:09.825Z,15.67
2022-09-02T13:58:46.220Z,14.47
2022-09-02T14:01:28.376Z,14.70
2022-09-02T14:03:57.968Z,15.23
2022-09-02T14:06:29.074Z,16.17
2022-09-02T14:09:01.553Z,15.41
2022-09-02T14:11:30.640Z,16.14
2022-09-02T14:13:57.663Z,15.85
2022-09-02T14:16:33.995Z,15.63
2022-09-02T14:19:22.739Z,15.66
2022-09-02T14:21:50.605Z,14.92
2022-09-02T14:24:22.100Z,14.69
2022-09-02T14:26:51.960Z,14.74
2022-09-02T14:29:20.711Z,14.30
2022-09-02T14:32:06.306Z,15.44
2022-09-02T14:34:37.851Z,15.86
2022-09-02T14:37:28.577Z,15.21
2022-09-02T14:40:12.077Z,15.83
2022-09-02T14:42:45.405Z,15.25
2022-09-02T14:45:13.607Z,14.77
2022-09-02T14:47:41.242Z,14.95
2022-09-02T14:50:17.428Z,15.45
2022-09-02T14:52:52.122Z,14.82
2022-09-02T14:55:54.684Z,14.81
2022-09-02T14:58:24.877Z,14.71
2022-09-02T15:00:55.639Z,14.71
2022-09-02T15:03:23.346Z,15.41
2022-09-02T15:05:50.429Z,15.59
2022-09-02T15:08:17.208Z,15.77
2022-09-02T15:10:45.076Z,16.16
2022-09-02T15:13:14.813Z,16.41
2022-09-02T15:15:41.398Z,16.97
2022-09-02T15:18:09.173Z,17.00
2022-09-02T15:20:36.104Z,16.85
2022-09-02T15:23:03.176Z,16.66
2022-09-02T15:25:31.037Z,16.96
2022-09-02T15:27:57.681Z,16.94
2022-09-02T15:30:24.451Z,17.81
2022-09-02T15:32:51.558Z,18.06
2022-09-02T15:35:18.154Z,18.13
2022-09-02T15:37:44.692Z,18.93
2022-09-02T15:40:12.281Z,17.82
2022-09-02T15:42:39.631Z,17.22
2022-09-02T15:45:08.986Z,18.25
2022-09-02T15:47:36.336Z,18.24
2022-09-02T15:50:04.719Z,18.66
2022-09-02T15:52:32.977Z,18.33
2022-09-02T15:54:59.527Z,19.44
2022-09-02T15:57:26.228Z,19.18
2022-09-02T15:59:52.761Z,18.85
2022-09-02T16:02:19.420Z,18.61
2022-09-02T16:04:45.968Z,18.70
2022-09-02T16:07:16.876Z,18.57
2022-09-02T16:09:44.242Z,19.09
2022-09-02T16:12:12.983Z,19.60
2022-09-02T16:14:39.557Z,19.62
2022-09-02T16:17:08.565Z,19.52
2022-09-02T16:19:35.049Z,19.64
2022-09-02T16:22:01.745Z,20.46
2022-09-02T16:24:28.277Z,20.38
2022-09-02T16:26:54.860Z,21.07
2022-09-02T16:29:21.551Z,20.45
2022-09-02T16:32:02.260Z,20.17
2022-09-02T16:34:35.929Z,20.51
2022-09-02T16:37:02.550Z,20.79
2022-09-02T16:39:29.144Z,20.86
2022-09-02T16:41:55.724Z,20.72
2022-09-02T16:44:24.735Z,21.66
2022-09-02T16:47:18.789Z,21.31
2022-09-02T16:49:46.350Z,21.77
2022-09-02T16:52:13.409Z,21.62
2022-09-02T16:54:41.033Z,21.38
2022-09-02T16:57:08.332Z,21.67
2022-09-02T16:59:34.976Z,21.59
2022-09-02T17:02:01.968Z,22.43
2022-09-02T17:04:29.537Z,22.10
2022-09-02T17:06:56.612Z,22.57
2022-09-02T17:09:23.217Z,22.82
2022-09-02T17:11:53.797Z,22.80
2022-09-02T17:14:21.709Z,22.69
2022-09-02T17:16:50.364Z,23.52
2022-09-02T17:19:22.843Z,24.08
2022-09-02T17:21:54.305Z,24.54
2022-09-02T17:24:23.771Z,24.41
2022-09-02T17:26:52.395Z,24.69
2022-09-02T17:32:08.064Z,24.89
2022-09-02T17:34:34.744Z,24.87
2022-09-02T17:37:01.509Z,25.36
2022-09-02T17:39:28.180Z,25.17
2022-09-02T17:41:54.792Z,25.17
2022-09-02T17:44:26.962Z,25.37
2022-09-02T17:46:55.804Z,25.74
2022-09-02T17:49:22.587Z,25.66
2022-09-02T17:51:49.551Z,25.18
2022-09-02T17:54:16.051Z,25.38
2022-09-02T17:56:42.656Z,26.00
2022-09-02T17:59:27.999Z,26.13
2022-09-02T18:02:17.996Z,26.15
2022-09-02T18:05:18.452Z,26.50
2022-09-02T18:08:02.949Z,26.52
2022-09-02T18:10:36.189Z,26.61
2022-09-02T18:13:09.389Z,27.03
2022-09-02T18:16:08.327Z,27.14
2022-09-02T18:18:39.990Z,26.92
2022-09-02T18:21:12.596Z,27.29
2022-09-02T18:24:00.416Z,27.20
2022-09-02T18:26:59.102Z,27.46
2022-09-02T18:29:31.541Z,27.68
2022-09-02T18:32:23.414Z,27.80
2022-09-02T18:35:15.725Z,27.76
2022-09-02T18:38:08.697Z,27.91
2022-09-02T18:40:49.107Z,28.22
2022-09-02T18:43:34.837Z,27.92
2022-09-02T18:46:03.180Z,27.97
2022-09-02T18:48:33.364Z,28.30
2022-09-02T18:51:07.285Z,28.37
2022-09-02T18:53:39.791Z,28.28
2022-09-02T18:56:09.757Z,28.39
2022-09-02T18:58:54.824Z,28.29
2022-09-02T19:01:27.195Z,28.64
2022-09-02T19:03:53.925Z,28.84
2022-09-02T19:06:28.793Z,28.97
2022-09-02T19:08:59.626Z,29.25
2022-09-02T19:11:27.243Z,29.73
2022-09-02T19:13:56.653Z,29.56
2022-09-02T19:16:26.290Z,29.73
2022-09-02T19:18:53.386Z,29.80
2022-09-02T19:21:33.151Z,29.92
2022-09-02T19:24:02.344Z,30.58
2022-09-02T19:26:28.859Z,30.67
2022-09-02T19:28:57.031Z,30.73
2022-09-02T19:31:28.089Z,29.86
2022-09-02T19:33:59.475Z,30.47
2022-09-02T19:36:31.132Z,31.14
2022-09-02T19:38:58.315Z,30.67
2022-09-02T19:41:27.499Z,30.65
2022-09-02T19:43:54.618Z,31.30
2022-09-02T19:46:45.432Z,30.65
2022-09-02T19:49:08.550Z,31.72
2022-09-02T19:51:35.150Z,30.96
2022-09-02T19:54:01.787Z,31.61
2022-09-02T19:56:28.354Z,31.45
2022-09-02T19:58:55.118Z,31.78
2022-09-02T20:01:21.654Z,31.28
2022-09-02T20:03:48.314Z,31.38
2022-09-02T20:06:14.835Z,31.56
2022-09-02T20:08:41.360Z,31.88
2022-09-02T20:11:07.838Z,32.10
2022-09-02T20:13:40.094Z,32.40
2022-09-02T20:16:20.388Z,32.14
2022-09-02T20:18:48.732Z,32.20
2022-09-02T20:21:24.689Z,32.17
2022-09-02T20:23:53.717Z,32.48
2022-09-02T20:26:46.575Z,32.60
2022-09-02T20:29:42.450Z,33.07
2022-09-02T20:32:35.263Z,33.38
2022-09-02T20:35:17.172Z,32.94
2022-09-02T20:37:51.905Z,32.97
2022-09-02T20:40:46.863Z,33.33
2022-09-02T20:43:29.143Z,33.51
2022-09-02T20:46:34.252Z,33.74
2022-09-02T20:49:19.683Z,33.77
2022-09-02T20:52:05.559Z,33.65
2022-09-02T20:54:40.629Z,33.91
2022-09-02T20:57:30.957Z,33.62
2022-09-02T21:00:13.193Z,33.82
2022-09-02T21:03:05.292Z,34.27
2022-09-02T21:05:40.746Z,34.70
2022-09-02T21:08:24.438Z,34.28
2022-09-02T21:10:59.867Z,34.57
2022-09-02T21:13:51.376Z,34.67
2022-09-02T21:16:25.460Z,34.87
2022-09-02T21:19:13.956Z,35.03
2022-09-02T21:21:47.554Z,35.10
2022-09-02T21:24:20.455Z,35.14
2022-09-02T21:27:06.241Z,35.49
2022-09-02T21:29:42.104Z,35.12
2022-09-02T21:32:17.525Z,35.28
2022-09-02T21:34:52.819Z,35.58
2022-09-02T21:37:22.086Z,35.77
2022-09-02T21:39:58.204Z,35.61
2022-09-02T21:42:48.797Z,35.75
2022-09-02T21:45:33.656Z,36.04
2022-09-02T21:48:33.740Z,36.57
2022-09-02T21:51:08.636Z,36.67
2022-09-02T21:54:04.141Z,36.62
2022-09-02T21:56:38.760Z,36.80
2022-09-02T21:59:21.864Z,36.84
